sensor_id;sensor_type;location;lat;lon;timestamp;pressure;altitude;pressure_sealevel;temperature;humidity
64139;BME280;50435;43.700;-79.318;2023-08-06T00:02:15;100431.73;;;19.09;60.84
64139;BME280;50435;43.700;-79.318;2023-08-06T00:04:43;100439.12;;;19.29;61.23
64139;BME280;50435;43.700;-79.318;2023-08-06T00:07:10;100440.78;;;18.93;61.51
64139;BME280;50435;43.700;-79.318;2023-08-06T00:09:38;100436.91;;;19.12;61.76
64139;BME280;50435;43.700;-79.318;2023-08-06T00:12:07;100429.51;;;18.78;62.01
64139;BME280;50435;43.700;-79.318;2023-08-06T00:14:34;100428.42;;;19.01;62.07
64139;BME280;50435;43.700;-79.318;2023-08-06T00:17:02;100429.53;;;18.94;62.22
64139;BME280;50435;43.700;-79.318;2023-08-06T00:19:29;100429.07;;;18.90;62.34
64139;BME280;50435;43.700;-79.318;2023-08-06T00:21:57;100429.74;;;18.07;62.65
64139;BME280;50435;43.700;-79.318;2023-08-06T00:24:25;100433.99;;;19.02;62.61
64139;BME280;50435;43.700;-79.318;2023-08-06T00:26:52;100429.18;;;18.74;62.82
64139;BME280;50435;43.700;-79.318;2023-08-06T00:29:19;100423.86;;;18.40;63.07
64139;BME280;50435;43.700;-79.318;2023-08-06T00:31:47;100423.59;;;18.86;63.00
64139;BME280;50435;43.700;-79.318;2023-08-06T00:34:14;100429.69;;;18.80;63.16
64139;BME280;50435;43.700;-79.318;2023-08-06T00:36:42;100429.46;;;18.73;63.40
64139;BME280;50435;43.700;-79.318;2023-08-06T00:39:09;100429.41;;;18.67;63.58
64139;BME280;50435;43.700;-79.318;2023-08-06T00:41:37;100427.67;;;18.62;63.74
64139;BME280;50435;43.700;-79.318;2023-08-06T00:44:05;100427.39;;;18.56;63.87
64139;BME280;50435;43.700;-79.318;2023-08-06T00:46:32;100427.12;;;18.25;64.08
64139;BME280;50435;43.700;-79.318;2023-08-06T00:49:00;100426.13;;;18.40;64.23
64139;BME280;50435;43.700;-79.318;2023-08-06T00:51:28;100425.58;;;18.37;64.22
64139;BME280;50435;43.700;-79.318;2023-08-06T00:53:56;100425.39;;;18.51;64.41
64139;BME280;50435;43.700;-79.318;2023-08-06T00:56:24;100424.96;;;18.24;64.57
64139;BME280;50435;43.700;-79.318;2023-08-06T00:58:52;100423.78;;;18.16;64.64
64139;BME280;50435;43.700;-79.318;2023-08-06T01:01:20;100423.20;;;18.12;64.69
64139;BME280;50435;43.700;-79.318;2023-08-06T01:03:47;100422.72;;;18.27;64.91
64139;BME280;50435;43.700;-79.318;2023-08-06T01:06:16;100425.72;;;17.99;65.03
64139;BME280;50435;43.700;-79.318;2023-08-06T01:08:54;100425.34;;;18.14;65.18
64139;BME280;50435;43.700;-79.318;2023-08-06T01:11:29;100419.77;;;18.33;65.40
64139;BME280;50435;43.700;-79.318;2023-08-06T01:14:02;100417.86;;;17.79;65.59
64139;BME280;50435;43.700;-79.318;2023-08-06T01:16:31;100427.17;;;17.96;65.60
64139;BME280;50435;43.700;-79.318;2023-08-06T01:19:00;100433.76;;;17.68;65.72
64139;BME280;50435;43.700;-79.318;2023-08-06T01:21:27;100436.13;;;17.85;65.88
64139;BME280;50435;43.700;-79.318;2023-08-06T01:23:55;100440.47;;;17.80;66.00
64139;BME280;50435;43.700;-79.318;2023-08-06T01:26:29;100439.61;;;17.99;66.10
64139;BME280;50435;43.700;-79.318;2023-08-06T01:29:02;100437.77;;;17.45;66.30
64139;BME280;50435;43.700;-79.318;2023-08-06T01:31:37;100441.97;;;17.61;66.36
64139;BME280;50435;43.700;-79.318;2023-08-06T01:34:10;100448.44;;;17.55;66.63
64139;BME280;50435;43.700;-79.318;2023-08-06T01:36:38;100441.50;;;17.78;66.63
64139;BME280;50435;43.700;-79.318;2023-08-06T01:39:06;100440.72;;;17.45;66.78
64139;BME280;50435;43.700;-79.318;2023-08-06T01:41:33;100442.39;;;17.41;66.83
64139;BME280;50435;43.700;-79.318;2023-08-06T01:44:01;100442.21;;;17.64;66.91
64139;BME280;50435;43.700;-79.318;2023-08-06T01:46:29;100437.78;;;17.56;66.99
64139;BME280;50435;43.700;-79.318;2023-08-06T01:48:56;100438.02;;;17.52;67.17
64139;BME280;50435;43.700;-79.318;2023-08-06T01:51:24;100437.88;;;17.48;67.22
64139;BME280;50435;43.700;-79.318;2023-08-06T01:53:52;100431.95;;;17.40;67.34
64139;BME280;50435;43.700;-79.318;2023-08-06T01:56:19;100431.33;;;17.37;67.45
64139;BME280;50435;43.700;-79.318;2023-08-06T01:58:47;100430.86;;;17.33;67.42
64139;BME280;50435;43.700;-79.318;2023-08-06T02:01:15;100427.99;;;16.79;67.58
64139;BME280;50435;43.700;-79.318;2023-08-06T02:03:42;100426.10;;;17.24;67.69
64139;BME280;50435;43.700;-79.318;2023-08-06T02:06:10;100425.23;;;17.20;67.73
64139;BME280;50435;43.700;-79.318;2023-08-06T02:08:37;100420.58;;;17.35;67.93
64139;BME280;50435;43.700;-79.318;2023-08-06T02:11:05;100420.52;;;17.11;67.95
64139;BME280;50435;43.700;-79.318;2023-08-06T02:13:33;100424.83;;;17.03;68.05
64139;BME280;50435;43.700;-79.318;2023-08-06T02:16:00;100420.93;;;16.98;68.21
64139;BME280;50435;43.700;-79.318;2023-08-06T02:18:27;100420.88;;;16.96;68.21
64139;BME280;50435;43.700;-79.318;2023-08-06T02:20:56;100417.22;;;16.90;68.36
64139;BME280;50435;43.700;-79.318;2023-08-06T02:23:24;100420.89;;;16.84;68.56
64139;BME280;50435;43.700;-79.318;2023-08-06T02:25:57;100416.97;;;17.04;68.50
64139;BME280;50435;43.700;-79.318;2023-08-06T02:28:25;100422.33;;;16.74;68.77
64139;BME280;50435;43.700;-79.318;2023-08-06T02:30:52;100426.70;;;16.92;68.78
64139;BME280;50435;43.700;-79.318;2023-08-06T02:33:20;100429.53;;;16.65;68.90
64139;BME280;50435;43.700;-79.318;2023-08-06T02:35:48;100432.49;;;16.59;68.99
64139;BME280;50435;43.700;-79.318;2023-08-06T02:38:16;100433.07;;;16.80;68.95
64139;BME280;50435;43.700;-79.318;2023-08-06T02:40:44;100434.77;;;16.72;69.13
64139;BME280;50435;43.700;-79.318;2023-08-06T02:43:12;100431.17;;;16.94;69.21
64139;BME280;50435;43.700;-79.318;2023-08-06T02:45:39;100431.63;;;16.91;69.24
64139;BME280;50435;43.700;-79.318;2023-08-06T02:48:08;100429.78;;;16.37;69.40
64139;BME280;50435;43.700;-79.318;2023-08-06T02:50:39;100431.24;;;16.84;69.36
64139;BME280;50435;43.700;-79.318;2023-08-06T02:53:07;100426.54;;;16.80;69.44
64139;BME280;50435;43.700;-79.318;2023-08-06T02:55:35;100422.76;;;16.49;69.46
64139;BME280;50435;43.700;-79.318;2023-08-06T02:58:03;100419.90;;;16.70;69.64
64139;BME280;50435;43.700;-79.318;2023-08-06T03:00:31;100420.28;;;16.40;69.71
64139;BME280;50435;43.700;-79.318;2023-08-06T03:02:58;100422.52;;;16.63;69.78
64139;BME280;50435;43.700;-79.318;2023-08-06T03:05:25;100423.47;;;16.62;69.77
64139;BME280;50435;43.700;-79.318;2023-08-06T03:07:53;100424.48;;;16.57;69.88
64139;BME280;50435;43.700;-79.318;2023-08-06T03:10:20;100424.09;;;16.26;70.01
64139;BME280;50435;43.700;-79.318;2023-08-06T03:12:48;100423.00;;;16.49;69.95
64139;BME280;50435;43.700;-79.318;2023-08-06T03:15:15;100418.80;;;16.44;70.13
64139;BME280;50435;43.700;-79.318;2023-08-06T03:17:43;100417.45;;;16.41;70.26
64139;BME280;50435;43.700;-79.318;2023-08-06T03:20:10;100422.82;;;16.37;70.30
64139;BME280;50435;43.700;-79.318;2023-08-06T03:22:38;100419.94;;;16.32;70.39
64139;BME280;50435;43.700;-79.318;2023-08-06T03:25:06;100422.08;;;16.30;70.41
64139;BME280;50435;43.700;-79.318;2023-08-06T03:27:33;100419.32;;;16.48;70.41
64139;BME280;50435;43.700;-79.318;2023-08-06T03:30:00;100417.10;;;16.21;70.56
64139;BME280;50435;43.700;-79.318;2023-08-06T03:32:28;100420.71;;;16.19;70.62
64139;BME280;50435;43.700;-79.318;2023-08-06T03:34:55;100421.69;;;15.88;70.71
64139;BME280;50435;43.700;-79.318;2023-08-06T03:37:23;100421.73;;;16.09;70.84
64139;BME280;50435;43.700;-79.318;2023-08-06T03:39:51;100422.15;;;16.08;70.84
64139;BME280;50435;43.700;-79.318;2023-08-06T03:42:18;100417.82;;;16.27;70.94
64139;BME280;50435;43.700;-79.318;2023-08-06T03:44:45;100411.53;;;16.01;70.93
64139;BME280;50435;43.700;-79.318;2023-08-06T03:47:13;100409.26;;;16.00;70.95
64139;BME280;50435;43.700;-79.318;2023-08-06T03:49:40;100410.80;;;15.96;71.02
64139;BME280;50435;43.700;-79.318;2023-08-06T03:52:08;100410.53;;;15.65;71.01
64139;BME280;50435;43.700;-79.318;2023-08-06T03:54:36;100411.49;;;15.88;71.19
64139;BME280;50435;43.700;-79.318;2023-08-06T03:57:04;100414.16;;;15.60;71.17
64139;BME280;50435;43.700;-79.318;2023-08-06T03:59:32;100416.38;;;15.87;71.15
64139;BME280;50435;43.700;-79.318;2023-08-06T04:01:59;100414.27;;;15.85;71.21
64139;BME280;50435;43.700;-79.318;2023-08-06T04:04:26;100411.22;;;16.25;71.28
64139;BME280;50435;43.700;-79.318;2023-08-06T04:06:54;100405.28;;;16.00;71.33
64139;BME280;50435;43.700;-79.318;2023-08-06T04:09:21;100405.96;;;16.00;71.33
64139;BME280;50435;43.700;-79.318;2023-08-06T04:11:49;100409.04;;;15.74;71.50
64139;BME280;50435;43.700;-79.318;2023-08-06T04:14:16;100412.94;;;15.74;71.45
64139;BME280;50435;43.700;-79.318;2023-08-06T04:16:43;100414.37;;;15.93;71.49
64139;BME280;50435;43.700;-79.318;2023-08-06T04:19:11;100413.29;;;15.88;71.60
64139;BME280;50435;43.700;-79.318;2023-08-06T04:21:39;100406.01;;;15.88;71.68
64139;BME280;50435;43.700;-79.318;2023-08-06T04:24:06;100401.82;;;15.64;71.68
64139;BME280;50435;43.700;-79.318;2023-08-06T04:26:34;100399.87;;;15.88;71.63
64139;BME280;50435;43.700;-79.318;2023-08-06T04:29:02;100399.09;;;15.62;71.71
64139;BME280;50435;43.700;-79.318;2023-08-06T04:31:29;100398.52;;;16.05;71.79
64139;BME280;50435;43.700;-79.318;2023-08-06T04:33:57;100400.71;;;15.11;71.79
64139;BME280;50435;43.700;-79.318;2023-08-06T04:36:25;100403.52;;;15.81;71.85
64139;BME280;50435;43.700;-79.318;2023-08-06T04:38:52;100402.21;;;15.77;71.89
64139;BME280;50435;43.700;-79.318;2023-08-06T04:41:19;100401.10;;;15.97;71.99
64139;BME280;50435;43.700;-79.318;2023-08-06T04:43:47;100401.77;;;15.72;72.07
64139;BME280;50435;43.700;-79.318;2023-08-06T04:46:14;100404.04;;;15.70;72.17
64139;BME280;50435;43.700;-79.318;2023-08-06T04:48:41;100405.24;;;15.91;72.13
64139;BME280;50435;43.700;-79.318;2023-08-06T04:51:10;100404.21;;;15.66;72.23
64139;BME280;50435;43.700;-79.318;2023-08-06T04:53:37;100403.29;;;15.66;72.18
64139;BME280;50435;43.700;-79.318;2023-08-06T04:56:04;100403.94;;;15.43;72.30
64139;BME280;50435;43.700;-79.318;2023-08-06T04:58:31;100400.57;;;15.81;72.40
64139;BME280;50435;43.700;-79.318;2023-08-06T05:00:59;100401.36;;;15.35;72.47
64139;BME280;50435;43.700;-79.318;2023-08-06T05:03:26;100402.26;;;15.77;72.45
64139;BME280;50435;43.700;-79.318;2023-08-06T05:05:53;100401.05;;;15.55;72.51
64139;BME280;50435;43.700;-79.318;2023-08-06T05:08:21;100401.63;;;15.53;72.59
64139;BME280;50435;43.700;-79.318;2023-08-06T05:10:48;100402.29;;;15.71;72.64
64139;BME280;50435;43.700;-79.318;2023-08-06T05:13:16;100406.44;;;15.45;72.77
64139;BME280;50435;43.700;-79.318;2023-08-06T05:15:43;100407.31;;;15.63;72.85
64139;BME280;50435;43.700;-79.318;2023-08-06T05:18:10;100408.97;;;15.40;72.88
64139;BME280;50435;43.700;-79.318;2023-08-06T05:20:39;100413.55;;;15.59;72.94
64139;BME280;50435;43.700;-79.318;2023-08-06T05:23:06;100411.20;;;15.13;72.99
64139;BME280;50435;43.700;-79.318;2023-08-06T05:25:35;100409.96;;;15.56;73.01
64139;BME280;50435;43.700;-79.318;2023-08-06T05:28:02;100411.74;;;15.07;73.16
64139;BME280;50435;43.700;-79.318;2023-08-06T05:30:30;100418.53;;;15.49;73.17
64139;BME280;50435;43.700;-79.318;2023-08-06T05:32:58;100422.69;;;15.04;73.22
64139;BME280;50435;43.700;-79.318;2023-08-06T05:35:25;100425.63;;;15.45;73.25
64139;BME280;50435;43.700;-79.318;2023-08-06T05:37:53;100429.02;;;15.42;73.30
64139;BME280;50435;43.700;-79.318;2023-08-06T05:40:20;100428.60;;;15.19;73.31
64139;BME280;50435;43.700;-79.318;2023-08-06T05:42:47;100427.97;;;15.37;73.42
64139;BME280;50435;43.700;-79.318;2023-08-06T05:45:15;100426.51;;;15.37;73.35
64139;BME280;50435;43.700;-79.318;2023-08-06T05:47:43;100428.10;;;15.37;73.32
64139;BME280;50435;43.700;-79.318;2023-08-06T05:50:10;100428.17;;;15.12;73.43
64139;BME280;50435;43.700;-79.318;2023-08-06T05:52:38;100430.35;;;15.32;73.50
64139;BME280;50435;43.700;-79.318;2023-08-06T05:55:07;100431.91;;;15.28;73.55
64139;BME280;50435;43.700;-79.318;2023-08-06T05:57:34;100433.37;;;15.27;73.61
64139;BME280;50435;43.700;-79.318;2023-08-06T06:00:02;100434.44;;;15.24;73.63
64139;BME280;50435;43.700;-79.318;2023-08-06T06:02:29;100434.15;;;15.00;73.68
64139;BME280;50435;43.700;-79.318;2023-08-06T06:04:57;100434.89;;;14.75;73.78
64139;BME280;50435;43.700;-79.318;2023-08-06T06:07:24;100433.96;;;15.17;73.82
64139;BME280;50435;43.700;-79.318;2023-08-06T06:09:51;100434.30;;;15.15;73.92
64139;BME280;50435;43.700;-79.318;2023-08-06T06:12:19;100433.03;;;15.15;73.89
64139;BME280;50435;43.700;-79.318;2023-08-06T06:14:47;100435.36;;;15.13;73.86
64139;BME280;50435;43.700;-79.318;2023-08-06T06:17:14;100439.46;;;15.07;74.04
64139;BME280;50435;43.700;-79.318;2023-08-06T06:19:42;100443.71;;;15.03;74.16
64139;BME280;50435;43.700;-79.318;2023-08-06T06:22:09;100446.89;;;15.01;74.12
64139;BME280;50435;43.700;-79.318;2023-08-06T06:24:36;100441.89;;;15.25;74.20
64139;BME280;50435;43.700;-79.318;2023-08-06T06:27:04;100440.54;;;14.95;74.32
64139;BME280;50435;43.700;-79.318;2023-08-06T06:29:32;100441.44;;;14.94;74.32
64139;BME280;50435;43.700;-79.318;2023-08-06T06:31:59;100441.75;;;14.46;74.40
64139;BME280;50435;43.700;-79.318;2023-08-06T06:34:27;100442.46;;;14.87;74.45
64139;BME280;50435;43.700;-79.318;2023-08-06T06:36:55;100445.07;;;14.89;74.41
64139;BME280;50435;43.700;-79.318;2023-08-06T06:39:23;100442.64;;;14.85;74.50
64139;BME280;50435;43.700;-79.318;2023-08-06T06:41:50;100438.65;;;15.07;74.57
64139;BME280;50435;43.700;-79.318;2023-08-06T06:44:18;100438.11;;;14.79;74.57
64139;BME280;50435;43.700;-79.318;2023-08-06T06:46:45;100436.71;;;14.75;74.67
64139;BME280;50435;43.700;-79.318;2023-08-06T06:49:13;100431.93;;;14.75;74.62
64139;BME280;50435;43.700;-79.318;2023-08-06T06:51:41;100432.89;;;14.97;74.74
64139;BME280;50435;43.700;-79.318;2023-08-06T06:54:08;100435.90;;;14.67;74.82
64139;BME280;50435;43.700;-79.318;2023-08-06T06:56:35;100441.51;;;14.91;74.84
64139;BME280;50435;43.700;-79.318;2023-08-06T06:59:03;100439.46;;;14.62;74.94
64139;BME280;50435;43.700;-79.318;2023-08-06T07:01:31;100436.18;;;14.60;74.89
64139;BME280;50435;43.700;-79.318;2023-08-06T07:03:58;100436.36;;;14.36;74.93
64139;BME280;50435;43.700;-79.318;2023-08-06T07:06:25;100431.19;;;14.81;75.07
64139;BME280;50435;43.700;-79.318;2023-08-06T07:08:52;100431.50;;;14.78;75.13
64139;BME280;50435;43.700;-79.318;2023-08-06T07:11:20;100435.89;;;14.50;75.09
64139;BME280;50435;43.700;-79.318;2023-08-06T07:13:49;100434.19;;;14.73;75.20
64139;BME280;50435;43.700;-79.318;2023-08-06T07:16:16;100438.57;;;14.46;75.18
64139;BME280;50435;43.700;-79.318;2023-08-06T07:18:43;100436.04;;;14.69;75.25
64139;BME280;50435;43.700;-79.318;2023-08-06T07:21:11;100437.86;;;14.42;75.25
64139;BME280;50435;43.700;-79.318;2023-08-06T07:23:38;100437.32;;;14.40;75.34
64139;BME280;50435;43.700;-79.318;2023-08-06T07:26:06;100435.02;;;14.37;75.34
64139;BME280;50435;43.700;-79.318;2023-08-06T07:28:33;100437.31;;;14.62;75.38
64139;BME280;50435;43.700;-79.318;2023-08-06T07:31:03;100441.79;;;14.59;75.40
64139;BME280;50435;43.700;-79.318;2023-08-06T07:33:31;100441.77;;;14.77;75.47
64139;BME280;50435;43.700;-79.318;2023-08-06T07:35:58;100437.59;;;14.26;75.46
64139;BME280;50435;43.700;-79.318;2023-08-06T07:38:26;100437.44;;;14.25;75.50
64139;BME280;50435;43.700;-79.318;2023-08-06T07:40:54;100443.62;;;14.46;75.60
64139;BME280;50435;43.700;-79.318;2023-08-06T07:43:21;100441.27;;;14.45;75.60
64139;BME280;50435;43.700;-79.318;2023-08-06T07:45:48;100437.97;;;14.65;75.65
64139;BME280;50435;43.700;-79.318;2023-08-06T07:48:16;100437.84;;;14.60;75.79
64139;BME280;50435;43.700;-79.318;2023-08-06T07:50:43;100434.79;;;14.59;75.78
64139;BME280;50435;43.700;-79.318;2023-08-06T07:53:10;100436.86;;;14.56;75.80
64139;BME280;50435;43.700;-79.318;2023-08-06T07:55:38;100439.59;;;14.54;75.83
64139;BME280;50435;43.700;-79.318;2023-08-06T07:58:05;100437.93;;;14.27;75.92
64139;BME280;50435;43.700;-79.318;2023-08-06T08:00:33;100435.26;;;14.50;75.86
64139;BME280;50435;43.700;-79.318;2023-08-06T08:03:00;100433.90;;;13.95;76.07
64139;BME280;50435;43.700;-79.318;2023-08-06T08:05:28;100430.12;;;14.19;76.03
64139;BME280;50435;43.700;-79.318;2023-08-06T08:07:55;100426.57;;;14.39;76.14
64139;BME280;50435;43.700;-79.318;2023-08-06T08:10:22;100421.33;;;14.14;76.15
64139;BME280;50435;43.700;-79.318;2023-08-06T08:12:50;100417.84;;;14.34;76.20
64139;BME280;50435;43.700;-79.318;2023-08-06T08:15:17;100415.58;;;13.83;76.21
64139;BME280;50435;43.700;-79.318;2023-08-06T08:17:44;100407.91;;;14.32;76.24
64139;BME280;50435;43.700;-79.318;2023-08-06T08:20:12;100404.35;;;14.27;76.35
64139;BME280;50435;43.700;-79.318;2023-08-06T08:22:40;100402.98;;;14.25;76.38
64139;BME280;50435;43.700;-79.318;2023-08-06T08:25:08;100398.76;;;14.00;76.43
64139;BME280;50435;43.700;-79.318;2023-08-06T08:27:35;100400.05;;;14.19;76.52
64139;BME280;50435;43.700;-79.318;2023-08-06T08:30:03;100396.15;;;13.69;76.52
64139;BME280;50435;43.700;-79.318;2023-08-06T08:32:30;100398.29;;;14.17;76.47
64139;BME280;50435;43.700;-79.318;2023-08-06T08:34:58;100399.54;;;13.66;76.58
64139;BME280;50435;43.700;-79.318;2023-08-06T08:37:25;100400.11;;;14.13;76.52
64139;BME280;50435;43.700;-79.318;2023-08-06T08:39:52;100397.58;;;14.10;76.57
64139;BME280;50435;43.700;-79.318;2023-08-06T08:42:20;100397.28;;;14.07;76.65
64139;BME280;50435;43.700;-79.318;2023-08-06T08:44:48;100399.72;;;14.04;76.71
64139;BME280;50435;43.700;-79.318;2023-08-06T08:47:15;100394.73;;;14.04;76.64
64139;BME280;50435;43.700;-79.318;2023-08-06T08:49:44;100393.54;;;13.78;76.74
64139;BME280;50435;43.700;-79.318;2023-08-06T08:52:15;100394.00;;;13.77;76.69
64139;BME280;50435;43.700;-79.318;2023-08-06T08:54:44;100401.06;;;13.95;76.81
64139;BME280;50435;43.700;-79.318;2023-08-06T08:57:12;100401.39;;;13.92;76.88
64139;BME280;50435;43.700;-79.318;2023-08-06T08:59:39;100398.69;;;13.92;76.84
64139;BME280;50435;43.700;-79.318;2023-08-06T09:02:09;100401.61;;;13.90;76.88
64139;BME280;50435;43.700;-79.318;2023-08-06T09:04:38;100404.93;;;13.90;76.78
64139;BME280;50435;43.700;-79.318;2023-08-06T09:07:08;100405.36;;;13.64;76.92
64139;BME280;50435;43.700;-79.318;2023-08-06T09:09:37;100403.76;;;13.81;76.98
64139;BME280;50435;43.700;-79.318;2023-08-06T09:12:12;100402.60;;;13.80;77.07
64139;BME280;50435;43.700;-79.318;2023-08-06T09:14:41;100400.79;;;13.78;77.08
64139;BME280;50435;43.700;-79.318;2023-08-06T09:17:09;100403.14;;;13.76;77.11
64139;BME280;50435;43.700;-79.318;2023-08-06T09:19:37;100401.26;;;13.75;77.07
64139;BME280;50435;43.700;-79.318;2023-08-06T09:22:05;100401.67;;;13.70;77.30
64139;BME280;50435;43.700;-79.318;2023-08-06T09:24:33;100397.84;;;13.68;77.23
64139;BME280;50435;43.700;-79.318;2023-08-06T09:27:03;100398.13;;;13.63;77.35
64139;BME280;50435;43.700;-79.318;2023-08-06T09:29:31;100400.15;;;13.39;77.39
64139;BME280;50435;43.700;-79.318;2023-08-06T09:31:58;100401.57;;;13.38;77.40
64139;BME280;50435;43.700;-79.318;2023-08-06T09:34:26;100402.40;;;13.59;77.38
64139;BME280;50435;43.700;-79.318;2023-08-06T09:36:54;100401.58;;;13.78;77.45
64139;BME280;50435;43.700;-79.318;2023-08-06T09:39:26;100401.82;;;13.77;77.48
64139;BME280;50435;43.700;-79.318;2023-08-06T09:41:56;100404.16;;;13.51;77.52
64139;BME280;50435;43.700;-79.318;2023-08-06T09:44:26;100401.96;;;13.70;77.60
64139;BME280;50435;43.700;-79.318;2023-08-06T09:46:55;100392.46;;;13.68;77.62
64139;BME280;50435;43.700;-79.318;2023-08-06T09:49:26;100388.34;;;13.44;77.69
64139;BME280;50435;43.700;-79.318;2023-08-06T09:51:55;100390.02;;;13.42;77.73
64139;BME280;50435;43.700;-79.318;2023-08-06T09:54:23;100390.87;;;13.41;77.65
64139;BME280;50435;43.700;-79.318;2023-08-06T09:56:50;100387.70;;;13.37;77.80
64139;BME280;50435;43.700;-79.318;2023-08-06T09:59:18;100387.47;;;13.36;77.77
64139;BME280;50435;43.700;-79.318;2023-08-06T10:01:46;100384.76;;;13.58;77.73
64139;BME280;50435;43.700;-79.318;2023-08-06T10:04:14;100384.10;;;13.34;77.77
64139;BME280;50435;43.700;-79.318;2023-08-06T10:06:43;100384.96;;;13.31;77.78
64139;BME280;50435;43.700;-79.318;2023-08-06T10:09:13;100389.79;;;13.30;77.80
64139;BME280;50435;43.700;-79.318;2023-08-06T10:11:42;100388.03;;;13.49;77.91
64139;BME280;50435;43.700;-79.318;2023-08-06T10:14:14;100390.82;;;13.47;77.93
64139;BME280;50435;43.700;-79.318;2023-08-06T10:16:43;100389.31;;;13.42;78.06
64139;BME280;50435;43.700;-79.318;2023-08-06T10:19:12;100389.97;;;13.20;78.03
64139;BME280;50435;43.700;-79.318;2023-08-06T10:21:40;100393.50;;;13.42;78.02
64139;BME280;50435;43.700;-79.318;2023-08-06T10:24:08;100396.02;;;13.15;78.14
64139;BME280;50435;43.700;-79.318;2023-08-06T10:26:35;100388.76;;;13.16;78.14
64139;BME280;50435;43.700;-79.318;2023-08-06T10:29:35;100388.89;;;13.39;78.04
64139;BME280;50435;43.700;-79.318;2023-08-06T10:32:03;100394.77;;;13.34;78.21
64139;BME280;50435;43.700;-79.318;2023-08-06T10:34:53;100400.04;;;13.32;78.21
64139;BME280;50435;43.700;-79.318;2023-08-06T10:37:21;100393.89;;;13.30;78.32
64139;BME280;50435;43.700;-79.318;2023-08-06T10:39:49;100395.09;;;13.29;78.29
64139;BME280;50435;43.700;-79.318;2023-08-06T10:42:21;100394.28;;;13.27;78.32
64139;BME280;50435;43.700;-79.318;2023-08-06T10:45:21;100387.76;;;13.53;78.35
64139;BME280;50435;43.700;-79.318;2023-08-06T10:47:49;100389.26;;;13.54;78.29
64139;BME280;50435;43.700;-79.318;2023-08-06T10:50:17;100386.99;;;13.25;78.37
64139;BME280;50435;43.700;-79.318;2023-08-06T10:52:45;100385.71;;;13.51;78.41
64139;BME280;50435;43.700;-79.318;2023-08-06T10:55:13;100380.73;;;13.52;78.33
64139;BME280;50435;43.700;-79.318;2023-08-06T10:57:41;100381.24;;;13.48;78.47
64139;BME280;50435;43.700;-79.318;2023-08-06T11:00:09;100378.62;;;13.22;78.41
64139;BME280;50435;43.700;-79.318;2023-08-06T11:02:37;100380.83;;;13.46;78.56
64139;BME280;50435;43.700;-79.318;2023-08-06T11:05:06;100381.91;;;13.17;78.62
64139;BME280;50435;43.700;-79.318;2023-08-06T11:07:34;100376.88;;;13.17;78.68
64139;BME280;50435;43.700;-79.318;2023-08-06T11:10:03;100377.78;;;12.93;78.75
64139;BME280;50435;43.700;-79.318;2023-08-06T11:12:30;100376.91;;;13.14;78.78
64139;BME280;50435;43.700;-79.318;2023-08-06T11:14:58;100382.73;;;12.70;78.77
64139;BME280;50435;43.700;-79.318;2023-08-06T11:17:26;100374.91;;;13.15;78.80
64139;BME280;50435;43.700;-79.318;2023-08-06T11:19:54;100376.57;;;13.15;78.84
64139;BME280;50435;43.700;-79.318;2023-08-06T11:22:22;100376.34;;;13.16;78.89
64139;BME280;50435;43.700;-79.318;2023-08-06T11:24:49;100367.98;;;13.15;78.92
64139;BME280;50435;43.700;-79.318;2023-08-06T11:27:17;100366.42;;;13.17;78.89
64139;BME280;50435;43.700;-79.318;2023-08-06T11:29:45;100363.55;;;13.18;78.90
64139;BME280;50435;43.700;-79.318;2023-08-06T11:32:13;100366.48;;;13.20;78.91
64139;BME280;50435;43.700;-79.318;2023-08-06T11:34:41;100368.26;;;13.20;78.89
64139;BME280;50435;43.700;-79.318;2023-08-06T11:37:09;100371.23;;;13.20;78.97
64139;BME280;50435;43.700;-79.318;2023-08-06T11:39:38;100369.84;;;13.48;78.94
64139;BME280;50435;43.700;-79.318;2023-08-06T11:42:06;100366.14;;;12.99;78.98
64139;BME280;50435;43.700;-79.318;2023-08-06T11:44:35;100363.69;;;13.24;78.90
64139;BME280;50435;43.700;-79.318;2023-08-06T11:47:04;100357.09;;;13.26;78.88
64139;BME280;50435;43.700;-79.318;2023-08-06T11:49:40;100355.90;;;13.05;78.86
64139;BME280;50435;43.700;-79.318;2023-08-06T11:52:11;100353.32;;;13.06;78.89
64139;BME280;50435;43.700;-79.318;2023-08-06T11:54:39;100348.05;;;13.56;78.84
64139;BME280;50435;43.700;-79.318;2023-08-06T11:57:06;100344.22;;;13.09;78.79
64139;BME280;50435;43.700;-79.318;2023-08-06T11:59:33;100342.48;;;13.33;78.74
64139;BME280;50435;43.700;-79.318;2023-08-06T12:02:02;100342.27;;;13.36;78.67
64139;BME280;50435;43.700;-79.318;2023-08-06T12:04:30;100343.72;;;13.37;78.66
64139;BME280;50435;43.700;-79.318;2023-08-06T12:07:05;100341.58;;;12.94;78.72
64139;BME280;50435;43.700;-79.318;2023-08-06T12:09:33;100344.34;;;13.22;78.58
64139;BME280;50435;43.700;-79.318;2023-08-06T12:12:00;100347.64;;;13.21;78.65
64139;BME280;50435;43.700;-79.318;2023-08-06T12:14:27;100341.11;;;13.45;78.64
64139;BME280;50435;43.700;-79.318;2023-08-06T12:16:55;100336.40;;;13.46;78.67
64139;BME280;50435;43.700;-79.318;2023-08-06T12:19:23;100335.06;;;13.28;78.67
64139;BME280;50435;43.700;-79.318;2023-08-06T12:21:51;100336.56;;;13.52;78.70
64139;BME280;50435;43.700;-79.318;2023-08-06T12:24:18;100344.98;;;13.33;78.68
64139;BME280;50435;43.700;-79.318;2023-08-06T12:26:45;100349.51;;;13.37;78.61
64139;BME280;50435;43.700;-79.318;2023-08-06T12:29:13;100348.65;;;13.64;78.65
64139;BME280;50435;43.700;-79.318;2023-08-06T12:31:41;100346.57;;;13.68;78.57
64139;BME280;50435;43.700;-79.318;2023-08-06T12:34:09;100348.44;;;13.47;78.66
64139;BME280;50435;43.700;-79.318;2023-08-06T12:36:36;100343.49;;;13.55;78.59